createdAt,value
2022-11-02T00:00:06.053Z,100.00
2022-11-02T00:07:12.408Z,100.00
2022-11-02T00:09:40.080Z,100.00
2022-11-02T00:12:07.815Z,100.00
2022-11-02T00:14:35.481Z,100.00
2022-11-02T00:17:03.227Z,100.00
2022-11-02T00:19:32.980Z,100.00
2022-11-02T00:22:02.311Z,100.00
2022-11-02T00:24:32.639Z,100.00
2022-11-02T00:27:00.570Z,100.00
2022-11-02T00:29:33.477Z,100.00
2022-11-02T00:32:01.968Z,100.00
2022-11-02T00:34:29.417Z,100.00
2022-11-02T00:36:56.876Z,100.00
2022-11-02T00:39:24.376Z,100.00
2022-11-02T00:41:54.345Z,100.00
2022-11-02T00:44:22.132Z,100.00
2022-11-02T00:46:49.691Z,100.00
2022-11-02T00:49:18.552Z,100.00
2022-11-02T00:51:46.533Z,100.00
2022-11-02T00:54:15.796Z,100.00
2022-11-02T00:56:43.357Z,100.00
2022-11-02T00:59:10.978Z,100.00
2022-11-02T01:01:38.737Z,100.00
2022-11-02T01:04:06.401Z,100.00
2022-11-02T01:06:33.990Z,100.00
2022-11-02T01:09:01.398Z,100.00
2022-11-02T01:11:28.919Z,100.00
2022-11-02T01:13:56.428Z,100.00
2022-11-02T01:16:23.940Z,100.00
2022-11-02T01:18:53.574Z,100.00
2022-11-02T01:21:22.155Z,100.00
2022-11-02T01:23:50.160Z,100.00
2022-11-02T01:26:18.456Z,100.00
2022-11-02T01:28:45.961Z,100.00
2022-11-02T01:31:14.157Z,100.00
2022-11-02T01:33:45.801Z,100.00
2022-11-02T01:36:15.069Z,100.00
2022-11-02T01:38:42.651Z,100.00
2022-11-02T01:41:12.447Z,100.00
2022-11-02T01:43:49.264Z,100.00
2022-11-02T01:46:32.046Z,100.00
2022-11-02T01:49:07.565Z,100.00
2022-11-02T01:51:44.252Z,100.00
2022-11-02T01:54:16.174Z,100.00
2022-11-02T01:56:48.577Z,100.00
2022-11-02T01:59:21.985Z,100.00
2022-11-02T02:01:49.924Z,100.00
2022-11-02T02:04:17.722Z,100.00
2022-11-02T02:06:45.308Z,100.00
2022-11-02T02:09:14.913Z,100.00
2022-11-02T02:11:42.718Z,100.00
2022-11-02T02:14:20.899Z,100.00
2022-11-02T02:17:14.035Z,100.00
2022-11-02T02:20:02.822Z,100.00
2022-11-02T02:22:52.194Z,100.00
2022-11-02T02:25:50.473Z,100.00
2022-11-02T02:28:43.559Z,100.00
2022-11-02T02:31:33.290Z,100.00
2022-11-02T02:34:15.225Z,100.00
2022-11-02T02:36:54.451Z,100.00
2022-11-02T02:39:33.850Z,100.00
2022-11-02T02:42:24.518Z,100.00
2022-11-02T02:45:23.074Z,100.00
2022-11-02T02:48:06.428Z,100.00
2022-11-02T02:50:40.712Z,100.00
2022-11-02T02:53:09.806Z,100.00
2022-11-02T02:55:44.766Z,100.00
2022-11-02T02:58:18.723Z,100.00
2022-11-02T03:00:46.708Z,100.00
2022-11-02T03:03:20.254Z,100.00
2022-11-02T03:06:14.391Z,100.00
2022-11-02T03:08:52.808Z,100.00
2022-11-02T03:11:22.078Z,100.00
2022-11-02T03:13:49.893Z,100.00
2022-11-02T03:16:27.510Z,100.00
2022-11-02T03:19:20.132Z,100.00
2022-11-02T03:22:00.181Z,100.00
2022-11-02T03:25:03.356Z,100.00
2022-11-02T03:27:37.594Z,100.00
2022-11-02T03:30:15.939Z,100.00
2022-11-02T03:33:16.846Z,100.00
2022-11-02T03:36:15.371Z,100.00
2022-11-02T03:38:56.085Z,100.00
2022-11-02T03:41:27.140Z,100.00
2022-11-02T03:44:08.914Z,100.00
2022-11-02T03:46:40.397Z,100.00
2022-11-02T03:49:13.476Z,100.00
2022-11-02T03:51:45.267Z,100.00
2022-11-02T03:54:26.018Z,100.00
2022-11-02T03:56:58.353Z,100.00
2022-11-02T03:59:30.381Z,100.00
2022-11-02T04:01:59.906Z,100.00
2022-11-02T04:04:28.797Z,100.00
2022-11-02T04:06:56.951Z,100.00
2022-11-02T04:09:24.534Z,100.00
2022-11-02T04:12:10.679Z,100.00
2022-11-02T04:14:38.379Z,100.00
2022-11-02T04:19:59.745Z,100.00
2022-11-02T04:22:46.527Z,100.00
2022-11-02T04:25:19.490Z,100.00
2022-11-02T04:27:54.648Z,100.00
2022-11-02T04:30:27.702Z,100.00
2022-11-02T04:33:15.051Z,100.00
2022-11-02T04:35:51.826Z,100.00
2022-11-02T04:38:39.099Z,100.00
2022-11-02T04:41:27.735Z,100.00
2022-11-02T04:43:55.720Z,100.00
2022-11-02T04:46:25.448Z,100.00
2022-11-02T04:48:53.369Z,100.00
2022-11-02T04:51:22.090Z,100.00
2022-11-02T04:53:53.085Z,100.00
2022-11-02T04:56:21.865Z,100.00
2022-11-02T04:58:51.458Z,100.00
2022-11-02T05:01:22.824Z,100.00
2022-11-02T05:03:51.878Z,100.00
2022-11-02T05:06:21.293Z,100.00
2022-11-02T05:08:50.137Z,100.00
2022-11-02T05:11:18.837Z,100.00
2022-11-02T05:13:50.648Z,100.00
2022-11-02T05:16:19.636Z,100.00
2022-11-02T05:18:49.398Z,100.00
2022-11-02T05:21:18.624Z,100.00
2022-11-02T05:23:46.473Z,100.00
2022-11-02T05:26:14.781Z,100.00
2022-11-02T05:28:46.643Z,100.00
2022-11-02T05:31:14.389Z,100.00
2022-11-02T05:33:41.939Z,100.00
2022-11-02T05:36:14.315Z,100.00
2022-11-02T05:38:45.366Z,100.00
2022-11-02T05:41:13.849Z,100.00
2022-11-02T05:44:07.153Z,100.00
2022-11-02T06:00:36.756Z,100.00
2022-11-02T06:03:04.608Z,100.00
2022-11-02T06:05:32.430Z,100.00
2022-11-02T06:08:01.809Z,100.00
2022-11-02T06:13:56.085Z,100.00
2022-11-02T06:16:23.465Z,100.00
2022-11-02T06:19:16.937Z,100.00
2022-11-02T06:22:16.342Z,100.00
2022-11-02T06:24:50.519Z,100.00
2022-11-02T06:27:20.556Z,100.00
2022-11-02T06:29:51.471Z,100.00
2022-11-02T06:54:36.827Z,100.00
2022-11-02T06:57:13.237Z,100.00
2022-11-02T06:59:43.050Z,100.00
2022-11-02T07:02:10.870Z,100.00
2022-11-02T07:04:42.271Z,100.00
2022-11-02T07:07:21.401Z,100.00
2022-11-02T07:09:51.782Z,100.00
2022-11-02T07:13:00.993Z,100.00
2022-11-02T07:18:11.462Z,100.00
2022-11-02T07:20:19.443Z,100.00
2022-11-02T07:23:35.800Z,100.00
2022-11-02T07:26:05.134Z,100.00
2022-11-02T07:28:32.746Z,100.00
2022-11-02T07:31:00.531Z,100.00
2022-11-02T07:33:27.977Z,100.00
2022-11-02T07:35:55.407Z,100.00
2022-11-02T07:38:22.965Z,100.00
2022-11-02T07:40:53.207Z,100.00
2022-11-02T07:43:20.786Z,100.00
2022-11-02T07:45:56.248Z,100.00
2022-11-02T07:48:23.736Z,100.00
2022-11-02T07:50:51.314Z,97.91
2022-11-02T07:53:18.826Z,92.74
2022-11-02T07:55:46.502Z,88.51
2022-11-02T07:58:14.241Z,85.60
2022-11-02T08:00:42.587Z,83.73
2022-11-02T08:03:12.070Z,85.13
2022-11-02T08:05:43.397Z,86.27
2022-11-02T08:08:14.338Z,87.08
2022-11-02T08:10:43.094Z,82.73
2022-11-02T08:13:14.780Z,78.45
2022-11-02T08:15:42.488Z,78.90
2022-11-02T08:18:24.041Z,79.93
2022-11-02T08:20:52.457Z,79.71
2022-11-02T08:23:21.090Z,76.44
2022-11-02T08:25:50.661Z,72.29
2022-11-02T08:28:23.635Z,71.69
2022-11-02T08:30:51.358Z,72.02
2022-11-02T08:33:20.409Z,74.53
2022-11-02T08:35:50.498Z,75.44
2022-11-02T08:38:18.556Z,72.80
2022-11-02T08:40:46.494Z,72.87
2022-11-02T08:43:15.457Z,75.84
2022-11-02T08:46:14.251Z,71.31
2022-11-02T08:48:33.393Z,70.17
2022-11-02T08:51:01.022Z,70.21
2022-11-02T08:53:28.738Z,69.53
2022-11-02T08:55:59.389Z,70.47
2022-11-02T08:58:26.830Z,77.27
2022-11-02T09:00:54.649Z,77.07
2022-11-02T09:03:27.340Z,77.17
2022-11-02T09:06:00.136Z,75.27
2022-11-02T09:08:29.044Z,74.96
2022-11-02T09:11:02.142Z,72.28
2022-11-02T09:13:29.843Z,70.84
2022-11-02T09:15:58.994Z,77.17
2022-11-02T09:18:26.680Z,76.66
2022-11-02T09:20:54.175Z,77.14
2022-11-02T09:23:22.198Z,78.79
2022-11-02T09:25:50.319Z,85.12
2022-11-02T09:28:17.751Z,82.88
2022-11-02T09:30:45.595Z,84.86
2022-11-02T09:33:13.582Z,86.83
2022-11-02T09:35:45.162Z,89.91
2022-11-02T09:38:13.249Z,86.68
2022-11-02T09:40:44.974Z,89.00
2022-11-02T09:43:21.314Z,91.03
2022-11-02T09:46:06.624Z,91.16
2022-11-02T09:48:40.768Z,93.47
2022-11-02T09:51:13.533Z,90.49
2022-11-02T09:53:46.604Z,91.46
2022-11-02T09:56:17.545Z,92.77
2022-11-02T09:58:47.531Z,95.82
2022-11-02T10:01:26.801Z,96.66
2022-11-02T10:04:22.815Z,97.64
2022-11-02T10:07:06.708Z,98.78
2022-11-02T10:09:41.786Z,98.65
2022-11-02T10:12:16.845Z,99.89
2022-11-02T10:15:14.246Z,99.66
2022-11-02T10:17:43.631Z,96.33
2022-11-02T10:20:19.598Z,96.46
2022-11-02T10:22:47.764Z,95.18
2022-11-02T10:25:17.003Z,95.18
2022-11-02T10:27:48.780Z,94.58
2022-11-02T10:30:19.500Z,94.04
2022-11-02T10:32:55.112Z,94.09
2022-11-02T10:39:08.915Z,95.12
2022-11-02T10:41:52.465Z,96.73
2022-11-02T10:44:40.942Z,100.00
2022-11-02T10:47:34.412Z,98.58
2022-11-02T10:50:29.783Z,95.88
2022-11-02T10:53:20.358Z,93.36
2022-11-02T10:56:06.841Z,92.58
2022-11-02T10:58:38.794Z,96.13
2022-11-02T11:01:08.401Z,94.22
2022-11-02T11:03:52.543Z,97.96
2022-11-02T11:06:20.614Z,97.15
2022-11-02T11:08:53.616Z,94.76
2022-11-02T11:11:22.205Z,97.13
2022-11-02T11:19:54.434Z,98.24
2022-11-02T11:22:33.398Z,97.96
2022-11-02T11:25:12.855Z,94.07
2022-11-02T11:27:54.817Z,94.86
2022-11-02T11:30:58.247Z,95.71
2022-11-02T11:33:21.425Z,94.52
2022-11-02T11:35:51.122Z,94.77
2022-11-02T11:38:22.651Z,95.16
2022-11-02T11:40:54.322Z,92.79
2022-11-02T11:43:35.132Z,94.94
2022-11-02T11:46:08.393Z,95.75
2022-11-02T11:49:15.074Z,95.22
2022-11-02T11:51:50.927Z,95.90
2022-11-02T11:54:34.035Z,96.20
2022-11-02T11:57:28.173Z,95.96
2022-11-02T11:59:59.922Z,96.70
2022-11-02T12:02:42.714Z,94.51
2022-11-02T12:05:17.560Z,95.10
2022-11-02T12:08:12.912Z,94.62
2022-11-02T12:10:49.280Z,94.18
2022-11-02T12:13:16.583Z,94.24
2022-11-02T12:16:29.025Z,97.25
2022-11-02T12:21:26.874Z,96.15
2022-11-02T12:23:57.112Z,96.05
2022-11-02T12:26:45.703Z,99.51
2022-11-02T12:29:26.236Z,100.00
2022-11-02T12:32:09.038Z,100.00
2022-11-02T12:35:15.654Z,99.80
2022-11-02T12:37:50.748Z,100.00
2022-11-02T12:43:20.630Z,100.00
2022-11-02T12:46:07.735Z,100.00
2022-11-02T12:48:45.863Z,100.00
2022-11-02T12:51:43.789Z,100.00
2022-11-02T12:54:14.536Z,100.00
2022-11-02T12:56:50.172Z,100.00
2022-11-02T12:59:28.497Z,100.00
2022-11-02T13:02:18.942Z,100.00
2022-11-02T13:05:03.831Z,100.00
2022-11-02T13:07:39.110Z,100.00
2022-11-02T13:10:26.872Z,100.00
2022-11-02T13:12:59.049Z,100.00
2022-11-02T13:15:29.483Z,100.00
2022-11-02T13:18:02.737Z,100.00
2022-11-02T13:20:41.391Z,100.00
2022-11-02T13:23:36.688Z,100.00
2022-11-02T13:26:11.277Z,100.00
2022-11-02T13:28:50.525Z,100.00
2022-11-02T13:31:33.525Z,100.00
2022-11-02T13:34:06.709Z,100.00
2022-11-02T13:36:38.289Z,100.00
2022-11-02T13:39:17.538Z,100.00
2022-11-02T13:42:25.791Z,100.00
2022-11-02T13:45:02.162Z,100.00
2022-11-02T13:47:53.458Z,100.00
2022-11-02T13:50:24.175Z,100.00
2022-11-02T13:53:09.004Z,100.00
2022-11-02T13:55:46.924Z,100.00
2022-11-02T13:58:37.573Z,100.00
2022-11-02T14:01:08.131Z,100.00
2022-11-02T14:03:47.567Z,100.00
2022-11-02T14:06:17.985Z,100.00
2022-11-02T14:08:56.766Z,100.00
2022-11-02T14:11:36.556Z,100.00
2022-11-02T14:14:04.870Z,100.00
2022-11-02T14:16:50.531Z,100.00
2022-11-02T14:19:19.503Z,100.00
2022-11-02T14:21:50.728Z,100.00
2022-11-02T14:24:39.873Z,100.00
2022-11-02T14:27:10.432Z,100.00
2022-11-02T14:29:46.885Z,100.00
2022-11-02T14:32:17.198Z,100.00
2022-11-02T14:35:21.342Z,100.00
2022-11-02T14:38:07.492Z,100.00
2022-11-02T14:41:07.474Z,100.00
2022-11-02T14:44:16.640Z,100.00
2022-11-02T14:47:01.455Z,100.00
2022-11-02T14:49:36.920Z,100.00
2022-11-02T14:52:16.178Z,100.00
2022-11-02T14:55:21.684Z,100.00
2022-11-02T14:58:18.652Z,100.00
2022-11-02T15:00:49.127Z,100.00
2022-11-02T15:03:25.557Z,100.00
2022-11-02T15:06:15.560Z,100.00
2022-11-02T15:09:00.347Z,100.00
2022-11-02T15:11:48.558Z,100.00
2022-11-02T15:14:39.025Z,100.00
2022-11-02T15:17:15.828Z,100.00
2022-11-02T15:19:49.809Z,100.00
2022-11-02T15:22:32.499Z,100.00
2022-11-02T15:25:09.358Z,100.00
2022-11-02T15:27:40.612Z,100.00
2022-11-02T15:30:14.947Z,100.00
2022-11-02T15:33:05.910Z,100.00
2022-11-02T15:35:36.973Z,100.00
2022-11-02T15:38:29.557Z,100.00
2022-11-02T15:41:19.385Z,100.00
2022-11-02T15:44:11.513Z,100.00
2022-11-02T15:47:13.731Z,100.00
2022-11-02T15:49:44.149Z,100.00
2022-11-02T15:52:35.545Z,100.00
2022-11-02T15:55:20.680Z,100.00
2022-11-02T15:58:01.352Z,100.00
2022-11-02T16:00:31.913Z,100.00
2022-11-02T16:03:07.339Z,100.00
2022-11-02T16:05:42.890Z,100.00
2022-11-02T16:08:32.655Z,100.00
2022-11-02T16:11:05.233Z,100.00
2022-11-02T16:13:48.795Z,100.00
2022-11-02T16:16:23.156Z,100.00
2022-11-02T16:18:52.822Z,100.00
2022-11-02T16:21:21.569Z,100.00
2022-11-02T16:23:59.937Z,100.00
2022-11-02T16:26:29.811Z,100.00
2022-11-02T16:28:59.572Z,100.00
2022-11-02T16:31:32.093Z,100.00
2022-11-02T16:34:02.797Z,100.00
2022-11-02T16:36:32.480Z,100.00
2022-11-02T16:39:27.221Z,100.00
2022-11-02T16:41:58.238Z,100.00
2022-11-02T16:44:32.497Z,100.00
2022-11-02T16:47:06.643Z,100.00
2022-11-02T16:49:50.115Z,100.00
2022-11-02T16:52:21.606Z,100.00
2022-11-02T16:54:49.142Z,100.00
2022-11-02T16:57:23.764Z,100.00
2022-11-02T17:00:01.465Z,100.00
2022-11-02T17:02:28.973Z,100.00
2022-11-02T17:05:05.859Z,100.00
2022-11-02T17:07:39.213Z,100.00
2022-11-02T17:10:08.831Z,100.00
2022-11-02T17:12:43.590Z,100.00
2022-11-02T17:15:17.117Z,100.00
2022-11-02T17:17:45.194Z,100.00
2022-11-02T17:20:15.331Z,100.00
2022-11-02T17:22:56.991Z,100.00
2022-11-02T17:25:24.525Z,100.00
2022-11-02T17:27:53.893Z,100.00
2022-11-02T17:30:30.540Z,100.00
2022-11-02T17:32:58.811Z,100.00
2022-11-02T17:35:27.733Z,100.00
2022-11-02T17:37:55.419Z,100.00
2022-11-02T17:40:26.002Z,100.00
2022-11-02T17:42:59.805Z,100.00
2022-11-02T17:45:33.611Z,100.00
2022-11-02T17:48:02.371Z,100.00
2022-11-02T17:50:33.073Z,100.00
2022-11-02T17:53:02.467Z,100.00
2022-11-02T17:55:32.396Z,100.00
2022-11-02T17:58:00.765Z,100.00
2022-11-02T18:00:29.025Z,100.00
2022-11-02T18:03:00.400Z,100.00
2022-11-02T18:05:35.504Z,100.00
2022-11-02T18:08:05.412Z,100.00
2022-11-02T18:10:44.130Z,100.00
2022-11-02T18:13:18.279Z,100.00
2022-11-02T18:15:46.693Z,100.00
2022-11-02T18:18:17.112Z,100.00
2022-11-02T18:20:44.828Z,100.00
2022-11-02T18:23:19.457Z,100.00
2022-11-02T18:25:56.619Z,100.00
2022-11-02T18:28:47.493Z,100.00
2022-11-02T18:31:15.201Z,100.00
2022-11-02T18:33:43.594Z,100.00
2022-11-02T18:36:11.584Z,100.00
2022-11-02T18:38:39.340Z,100.00
2022-11-02T18:41:27.254Z,100.00
2022-11-02T18:44:03.512Z,100.00
2022-11-02T18:46:33.973Z,100.00
2022-11-02T18:49:01.888Z,100.00
2022-11-02T18:51:29.574Z,100.00
2022-11-02T18:53:59.995Z,100.00
2022-11-02T18:57:48.014Z,100.00
2022-11-02T19:00:16.035Z,100.00
2022-11-02T19:02:43.723Z,100.00
2022-11-02T19:05:34.068Z,100.00
2022-11-02T19:08:20.574Z,100.00
2022-11-02T19:10:48.486Z,100.00
2022-11-02T19:13:16.343Z,100.00
2022-11-02T19:15:46.299Z,100.00
2022-11-02T19:18:13.936Z,100.00
2022-11-02T19:20:41.446Z,100.00
2022-11-02T19:23:10.171Z,100.00
2022-11-02T19:25:37.990Z,100.00
2022-11-02T19:28:05.849Z,100.00
2022-11-02T19:30:33.589Z,100.00
2022-11-02T19:33:01.220Z,100.00
2022-11-02T19:35:28.795Z,100.00
2022-11-02T19:37:58.248Z,100.00
2022-11-02T19:40:25.856Z,100.00
2022-11-02T19:42:53.519Z,100.00
2022-11-02T19:45:21.336Z,100.00
2022-11-02T19:47:50.244Z,100.00
2022-11-02T19:50:17.907Z,100.00
2022-11-02T19:52:46.503Z,100.00
2022-11-02T19:55:14.097Z,100.00
2022-11-02T19:57:41.747Z,100.00
2022-11-02T20:00:09.915Z,100.00
2022-11-02T20:02:37.594Z,100.00
2022-11-02T20:05:05.546Z,100.00
2022-11-02T20:07:33.123Z,100.00
2022-11-02T20:10:01.023Z,100.00
2022-11-02T20:12:28.626Z,100.00
2022-11-02T20:14:56.158Z,100.00
2022-11-02T20:17:41.958Z,100.00
2022-11-02T20:20:11.816Z,100.00
2022-11-02T20:22:39.607Z,100.00
2022-11-02T20:25:07.727Z,100.00
2022-11-02T20:27:39.312Z,100.00
2022-11-02T20:30:08.769Z,100.00
2022-11-02T20:32:37.380Z,100.00
2022-11-02T20:35:09.673Z,100.00
2022-11-02T20:37:40.656Z,100.00
2022-11-02T20:40:10.587Z,100.00
2022-11-02T20:42:39.500Z,100.00
2022-11-02T20:45:08.474Z,100.00
2022-11-02T20:47:37.013Z,100.00
2022-11-02T20:50:08.093Z,100.00
2022-11-02T20:52:46.595Z,100.00
2022-11-02T20:55:15.538Z,100.00
2022-11-02T20:57:46.932Z,100.00
2022-11-02T21:00:16.502Z,100.00
2022-11-02T21:02:48.942Z,100.00
2022-11-02T21:05:17.870Z,100.00
2022-11-02T21:07:46.800Z,100.00
2022-11-02T21:10:15.490Z,100.00
2022-11-02T21:13:01.767Z,100.00
2022-11-02T21:15:31.199Z,100.00
2022-11-02T21:18:00.326Z,100.00
2022-11-02T21:20:34.250Z,100.00
2022-11-02T21:23:05.242Z,100.00
2022-11-02T21:25:34.302Z,100.00
2022-11-02T21:28:02.244Z,100.00
2022-11-02T21:30:33.771Z,100.00
2022-11-02T21:33:01.448Z,100.00
2022-11-02T21:35:29.209Z,100.00
2022-11-02T21:37:58.548Z,100.00
2022-11-02T21:40:28.063Z,100.00
2022-11-02T21:42:55.658Z,100.00
2022-11-02T21:45:26.195Z,100.00
2022-11-02T21:47:58.779Z,100.00
2022-11-02T21:50:26.395Z,100.00
2022-11-02T21:52:54.074Z,100.00
2022-11-02T21:55:21.809Z,100.00
2022-11-02T21:57:49.581Z,100.00
2022-11-02T22:00:17.431Z,100.00
2022-11-02T22:02:45.166Z,100.00
2022-11-02T22:05:32.867Z,100.00
2022-11-02T22:08:20.793Z,100.00
2022-11-02T22:10:48.437Z,100.00
2022-11-02T22:13:34.525Z,100.00
2022-11-02T22:16:12.216Z,100.00
2022-11-02T22:18:39.982Z,100.00
2022-11-02T22:21:08.074Z,100.00
2022-11-02T22:23:36.129Z,100.00
2022-11-02T22:26:08.002Z,100.00
2022-11-02T22:28:40.701Z,100.00
2022-11-02T22:31:14.584Z,100.00
2022-11-02T22:33:43.874Z,100.00
2022-11-02T22:36:14.643Z,100.00
2022-11-02T22:38:53.957Z,100.00
2022-11-02T22:41:34.037Z,100.00
2022-11-02T22:44:05.805Z,100.00
2022-11-02T22:46:36.409Z,100.00
2022-11-02T22:49:05.250Z,100.00
2022-11-02T22:51:37.213Z,100.00
2022-11-02T22:54:07.836Z,100.00
2022-11-02T22:56:35.951Z,100.00
2022-11-02T22:59:04.283Z,100.00
2022-11-02T23:01:35.943Z,100.00
2022-11-02T23:04:05.069Z,100.00
2022-11-02T23:06:33.123Z,100.00
2022-11-02T23:09:01.447Z,100.00
2022-11-02T23:11:32.071Z,100.00
2022-11-02T23:14:00.941Z,100.00
2022-11-02T23:16:32.239Z,100.00
2022-11-02T23:19:43.019Z,100.00
2022-11-02T23:22:30.719Z,100.00
2022-11-02T23:25:12.564Z,100.00
2022-11-02T23:28:01.258Z,100.00
2022-11-02T23:30:50.855Z,100.00
2022-11-02T23:33:19.150Z,100.00
2022-11-02T23:36:04.926Z,100.00
2022-11-02T23:39:19.428Z,100.00
2022-11-02T23:41:46.987Z,100.00
2022-11-02T23:44:14.866Z,100.00
2022-11-02T23:46:44.724Z,100.00
2022-11-02T23:49:13.281Z,100.00
2022-11-02T23:51:59.714Z,100.00
2022-11-02T23:54:46.098Z,100.00
2022-11-02T23:57:13.687Z,100.00
2022-11-02T23:59:41.403Z,100.00
